sensor_id;sensor_type;location;lat;lon;timestamp;P1;durP1;ratioP1;P2;durP2;ratioP2
45338;SDS011;31071;51.478;5.710;2023-06-26T00:02:14;19.83;;;17.73;;
45338;SDS011;31071;51.478;5.710;2023-06-26T00:04:41;18.52;;;16.60;;
45338;SDS011;31071;51.478;5.710;2023-06-26T00:07:07;22.35;;;16.58;;
45338;SDS011;31071;51.478;5.710;2023-06-26T00:09:33;20.83;;;17.65;;
45338;SDS011;31071;51.478;5.710;2023-06-26T00:11:59;23.30;;;17.95;;
45338;SDS011;31071;51.478;5.710;2023-06-26T00:14:25;20.25;;;17.75;;
45338;SDS011;31071;51.478;5.710;2023-06-26T00:16:51;20.38;;;17.23;;
45338;SDS011;31071;51.478;5.710;2023-06-26T00:19:16;19.50;;;17.42;;
45338;SDS011;31071;51.478;5.710;2023-06-26T00:21:42;20.40;;;16.27;;
45338;SDS011;31071;51.478;5.710;2023-06-26T00:24:11;19.63;;;17.52;;
45338;SDS011;31071;51.478;5.710;2023-06-26T00:26:37;18.92;;;16.92;;
45338;SDS011;31071;51.478;5.710;2023-06-26T00:29:03;19.42;;;17.33;;
45338;SDS011;31071;51.478;5.710;2023-06-26T00:31:29;17.80;;;15.75;;
45338;SDS011;31071;51.478;5.710;2023-06-26T00:33:55;17.73;;;13.57;;
45338;SDS011;31071;51.478;5.710;2023-06-26T00:36:20;14.48;;;12.20;;
45338;SDS011;31071;51.478;5.710;2023-06-26T00:38:47;14.70;;;12.63;;
45338;SDS011;31071;51.478;5.710;2023-06-26T00:41:13;13.52;;;11.88;;
45338;SDS011;31071;51.478;5.710;2023-06-26T00:43:39;14.73;;;11.95;;
45338;SDS011;31071;51.478;5.710;2023-06-26T00:46:05;14.23;;;12.70;;
45338;SDS011;31071;51.478;5.710;2023-06-26T00:48:38;14.23;;;12.43;;
45338;SDS011;31071;51.478;5.710;2023-06-26T00:51:05;13.70;;;12.23;;
45338;SDS011;31071;51.478;5.710;2023-06-26T00:53:31;16.23;;;12.57;;
45338;SDS011;31071;51.478;5.710;2023-06-26T00:55:57;13.57;;;12.18;;
45338;SDS011;31071;51.478;5.710;2023-06-26T00:58:24;15.15;;;12.45;;
45338;SDS011;31071;51.478;5.710;2023-06-26T01:00:53;13.48;;;12.05;;
45338;SDS011;31071;51.478;5.710;2023-06-26T01:03:22;14.85;;;13.13;;
45338;SDS011;31071;51.478;5.710;2023-06-26T01:05:50;14.27;;;12.57;;
45338;SDS011;31071;51.478;5.710;2023-06-26T01:08:24;16.73;;;12.25;;
45338;SDS011;31071;51.478;5.710;2023-06-26T01:10:50;14.50;;;12.25;;
45338;SDS011;31071;51.478;5.710;2023-06-26T01:13:16;13.75;;;12.27;;
45338;SDS011;31071;51.478;5.710;2023-06-26T01:15:43;14.57;;;12.15;;
45338;SDS011;31071;51.478;5.710;2023-06-26T01:18:08;13.93;;;12.23;;
45338;SDS011;31071;51.478;5.710;2023-06-26T01:20:35;13.65;;;12.35;;
45338;SDS011;31071;51.478;5.710;2023-06-26T01:23:15;16.50;;;12.25;;
45338;SDS011;31071;51.478;5.710;2023-06-26T01:28:35;13.48;;;12.02;;
45338;SDS011;31071;51.478;5.710;2023-06-26T01:31:05;13.05;;;11.70;;
45338;SDS011;31071;51.478;5.710;2023-06-26T01:33:32;10.65;;;9.40;;
45338;SDS011;31071;51.478;5.710;2023-06-26T01:35:58;12.45;;;8.68;;
45338;SDS011;31071;51.478;5.710;2023-06-26T01:38:24;11.85;;;8.35;;
45338;SDS011;31071;51.478;5.710;2023-06-26T01:40:51;10.88;;;8.02;;
45338;SDS011;31071;51.478;5.710;2023-06-26T01:46:24;8.10;;;7.28;;
45338;SDS011;31071;51.478;5.710;2023-06-26T01:49:38;11.00;;;7.93;;
45338;SDS011;31071;51.478;5.710;2023-06-26T01:52:07;9.18;;;7.38;;
45338;SDS011;31071;51.478;5.710;2023-06-26T01:54:42;10.18;;;7.53;;
45338;SDS011;31071;51.478;5.710;2023-06-26T01:57:29;8.23;;;7.32;;
45338;SDS011;31071;51.478;5.710;2023-06-26T01:59:56;8.55;;;7.30;;
45338;SDS011;31071;51.478;5.710;2023-06-26T02:02:24;10.38;;;7.82;;
45338;SDS011;31071;51.478;5.710;2023-06-26T02:04:50;10.00;;;7.38;;
45338;SDS011;31071;51.478;5.710;2023-06-26T02:07:16;9.80;;;7.60;;
45338;SDS011;31071;51.478;5.710;2023-06-26T02:09:41;10.73;;;7.82;;
45338;SDS011;31071;51.478;5.710;2023-06-26T02:12:08;11.15;;;7.38;;
45338;SDS011;31071;51.478;5.710;2023-06-26T02:14:33;11.95;;;7.03;;
45338;SDS011;31071;51.478;5.710;2023-06-26T02:16:59;10.75;;;7.57;;
45338;SDS011;31071;51.478;5.710;2023-06-26T02:19:25;8.88;;;7.88;;
45338;SDS011;31071;51.478;5.710;2023-06-26T02:21:52;10.43;;;7.63;;
45338;SDS011;31071;51.478;5.710;2023-06-26T02:24:18;10.93;;;7.45;;
45338;SDS011;31071;51.478;5.710;2023-06-26T02:26:44;8.60;;;7.13;;
45338;SDS011;31071;51.478;5.710;2023-06-26T02:29:10;11.38;;;7.30;;
45338;SDS011;31071;51.478;5.710;2023-06-26T02:31:36;9.43;;;7.18;;
45338;SDS011;31071;51.478;5.710;2023-06-26T02:34:02;10.57;;;7.28;;
45338;SDS011;31071;51.478;5.710;2023-06-26T02:36:27;10.57;;;7.20;;
45338;SDS011;31071;51.478;5.710;2023-06-26T02:38:53;8.30;;;6.65;;
45338;SDS011;31071;51.478;5.710;2023-06-26T02:41:18;10.10;;;7.18;;
45338;SDS011;31071;51.478;5.710;2023-06-26T02:43:44;9.75;;;7.20;;
45338;SDS011;31071;51.478;5.710;2023-06-26T02:46:09;9.77;;;6.75;;
45338;SDS011;31071;51.478;5.710;2023-06-26T02:48:35;12.95;;;7.43;;
45338;SDS011;31071;51.478;5.710;2023-06-26T02:51:00;10.70;;;6.88;;
45338;SDS011;31071;51.478;5.710;2023-06-26T02:53:26;9.15;;;6.60;;
45338;SDS011;31071;51.478;5.710;2023-06-26T02:55:52;11.15;;;6.60;;
45338;SDS011;31071;51.478;5.710;2023-06-26T02:58:17;8.63;;;6.20;;
45338;SDS011;31071;51.478;5.710;2023-06-26T03:00:43;8.70;;;5.90;;
45338;SDS011;31071;51.478;5.710;2023-06-26T03:03:09;7.13;;;5.93;;
45338;SDS011;31071;51.478;5.710;2023-06-26T03:05:35;9.20;;;5.60;;
45338;SDS011;31071;51.478;5.710;2023-06-26T03:08:00;8.50;;;5.88;;
45338;SDS011;31071;51.478;5.710;2023-06-26T03:10:27;9.32;;;5.70;;
45338;SDS011;31071;51.478;5.710;2023-06-26T03:12:53;10.98;;;6.05;;
45338;SDS011;31071;51.478;5.710;2023-06-26T03:15:18;10.75;;;5.70;;
45338;SDS011;31071;51.478;5.710;2023-06-26T03:17:44;10.50;;;5.82;;
45338;SDS011;31071;51.478;5.710;2023-06-26T03:20:10;9.07;;;5.60;;
45338;SDS011;31071;51.478;5.710;2023-06-26T03:22:35;12.05;;;6.03;;
45338;SDS011;31071;51.478;5.710;2023-06-26T03:25:02;12.15;;;6.80;;
45338;SDS011;31071;51.478;5.710;2023-06-26T03:27:28;10.07;;;5.93;;
45338;SDS011;31071;51.478;5.710;2023-06-26T03:29:53;10.95;;;6.15;;
45338;SDS011;31071;51.478;5.710;2023-06-26T03:32:19;13.30;;;6.05;;
45338;SDS011;31071;51.478;5.710;2023-06-26T03:34:44;8.68;;;5.70;;
45338;SDS011;31071;51.478;5.710;2023-06-26T03:37:11;14.23;;;5.97;;
45338;SDS011;31071;51.478;5.710;2023-06-26T03:39:36;12.85;;;6.20;;
45338;SDS011;31071;51.478;5.710;2023-06-26T03:42:02;10.85;;;5.95;;
45338;SDS011;31071;51.478;5.710;2023-06-26T03:44:27;14.85;;;6.10;;
45338;SDS011;31071;51.478;5.710;2023-06-26T03:46:53;12.52;;;6.25;;
45338;SDS011;31071;51.478;5.710;2023-06-26T03:49:19;11.35;;;6.55;;
45338;SDS011;31071;51.478;5.710;2023-06-26T03:51:45;11.57;;;5.30;;
45338;SDS011;31071;51.478;5.710;2023-06-26T03:54:10;14.80;;;6.28;;
45338;SDS011;31071;51.478;5.710;2023-06-26T03:56:36;10.60;;;5.53;;
45338;SDS011;31071;51.478;5.710;2023-06-26T03:59:01;12.32;;;6.45;;
45338;SDS011;31071;51.478;5.710;2023-06-26T04:01:27;9.20;;;5.05;;
45338;SDS011;31071;51.478;5.710;2023-06-26T04:03:53;10.00;;;5.97;;
45338;SDS011;31071;51.478;5.710;2023-06-26T04:06:19;9.02;;;5.32;;
45338;SDS011;31071;51.478;5.710;2023-06-26T04:08:44;10.30;;;6.18;;
45338;SDS011;31071;51.478;5.710;2023-06-26T04:11:10;12.02;;;6.18;;
45338;SDS011;31071;51.478;5.710;2023-06-26T04:13:35;11.45;;;6.22;;
45338;SDS011;31071;51.478;5.710;2023-06-26T04:16:01;16.23;;;6.00;;
45338;SDS011;31071;51.478;5.710;2023-06-26T04:18:27;13.18;;;6.15;;
45338;SDS011;31071;51.478;5.710;2023-06-26T04:21:06;15.30;;;7.03;;
45338;SDS011;31071;51.478;5.710;2023-06-26T04:23:36;16.92;;;6.53;;
45338;SDS011;31071;51.478;5.710;2023-06-26T04:26:02;14.05;;;6.97;;
45338;SDS011;31071;51.478;5.710;2023-06-26T04:28:29;13.13;;;6.50;;
45338;SDS011;31071;51.478;5.710;2023-06-26T04:30:58;14.13;;;6.05;;
45338;SDS011;31071;51.478;5.710;2023-06-26T04:33:24;17.27;;;7.07;;
45338;SDS011;31071;51.478;5.710;2023-06-26T04:35:50;15.20;;;6.50;;
45338;SDS011;31071;51.478;5.710;2023-06-26T04:38:16;13.30;;;6.95;;
45338;SDS011;31071;51.478;5.710;2023-06-26T04:40:42;15.75;;;7.28;;
45338;SDS011;31071;51.478;5.710;2023-06-26T04:43:07;16.50;;;6.32;;
45338;SDS011;31071;51.478;5.710;2023-06-26T04:45:33;14.98;;;7.45;;
45338;SDS011;31071;51.478;5.710;2023-06-26T04:47:58;13.70;;;7.22;;
45338;SDS011;31071;51.478;5.710;2023-06-26T04:50:25;17.45;;;7.45;;
45338;SDS011;31071;51.478;5.710;2023-06-26T04:52:51;16.42;;;6.82;;
45338;SDS011;31071;51.478;5.710;2023-06-26T04:55:17;15.00;;;6.80;;
45338;SDS011;31071;51.478;5.710;2023-06-26T04:57:43;13.45;;;6.68;;
45338;SDS011;31071;51.478;5.710;2023-06-26T05:00:08;14.80;;;6.80;;
45338;SDS011;31071;51.478;5.710;2023-06-26T05:02:36;15.55;;;6.97;;
45338;SDS011;31071;51.478;5.710;2023-06-26T05:05:01;16.52;;;6.60;;
45338;SDS011;31071;51.478;5.710;2023-06-26T05:07:27;20.13;;;7.25;;
45338;SDS011;31071;51.478;5.710;2023-06-26T05:09:53;19.95;;;7.00;;
45338;SDS011;31071;51.478;5.710;2023-06-26T05:12:18;12.23;;;6.15;;
45338;SDS011;31071;51.478;5.710;2023-06-26T05:14:44;17.10;;;7.47;;
45338;SDS011;31071;51.478;5.710;2023-06-26T05:17:10;18.85;;;7.15;;
45338;SDS011;31071;51.478;5.710;2023-06-26T05:19:36;14.70;;;6.32;;
45338;SDS011;31071;51.478;5.710;2023-06-26T05:22:01;16.30;;;6.65;;
45338;SDS011;31071;51.478;5.710;2023-06-26T05:24:32;12.30;;;6.57;;
45338;SDS011;31071;51.478;5.710;2023-06-26T05:27:03;19.88;;;7.15;;
45338;SDS011;31071;51.478;5.710;2023-06-26T05:29:33;17.60;;;6.60;;
45338;SDS011;31071;51.478;5.710;2023-06-26T05:31:59;17.30;;;6.40;;
45338;SDS011;31071;51.478;5.710;2023-06-26T05:34:25;24.50;;;6.13;;
45338;SDS011;31071;51.478;5.710;2023-06-26T05:36:57;17.75;;;6.22;;
45338;SDS011;31071;51.478;5.710;2023-06-26T05:39:24;16.58;;;6.28;;
45338;SDS011;31071;51.478;5.710;2023-06-26T05:41:50;17.75;;;5.95;;
45338;SDS011;31071;51.478;5.710;2023-06-26T05:44:16;18.90;;;6.15;;
45338;SDS011;31071;51.478;5.710;2023-06-26T05:46:41;16.05;;;5.68;;
45338;SDS011;31071;51.478;5.710;2023-06-26T05:49:07;16.13;;;6.10;;
45338;SDS011;31071;51.478;5.710;2023-06-26T05:51:33;16.13;;;6.00;;
45338;SDS011;31071;51.478;5.710;2023-06-26T05:53:59;19.75;;;6.22;;
45338;SDS011;31071;51.478;5.710;2023-06-26T05:56:25;13.02;;;5.47;;
45338;SDS011;31071;51.478;5.710;2023-06-26T05:58:51;16.67;;;5.45;;
45338;SDS011;31071;51.478;5.710;2023-06-26T06:01:18;18.88;;;5.75;;
45338;SDS011;31071;51.478;5.710;2023-06-26T06:03:44;20.38;;;6.00;;
45338;SDS011;31071;51.478;5.710;2023-06-26T06:06:10;16.00;;;6.15;;
45338;SDS011;31071;51.478;5.710;2023-06-26T06:08:36;15.45;;;5.70;;
45338;SDS011;31071;51.478;5.710;2023-06-26T06:11:02;20.70;;;6.43;;
45338;SDS011;31071;51.478;5.710;2023-06-26T06:13:28;17.88;;;5.63;;
45338;SDS011;31071;51.478;5.710;2023-06-26T06:15:54;14.82;;;5.63;;
45338;SDS011;31071;51.478;5.710;2023-06-26T06:18:20;15.18;;;5.82;;
45338;SDS011;31071;51.478;5.710;2023-06-26T06:20:46;17.95;;;5.78;;
45338;SDS011;31071;51.478;5.710;2023-06-26T06:23:12;16.10;;;4.88;;
45338;SDS011;31071;51.478;5.710;2023-06-26T06:25:38;16.33;;;5.18;;
45338;SDS011;31071;51.478;5.710;2023-06-26T06:28:04;17.95;;;5.03;;
45338;SDS011;31071;51.478;5.710;2023-06-26T06:30:30;14.57;;;4.80;;
45338;SDS011;31071;51.478;5.710;2023-06-26T06:32:56;15.20;;;5.43;;
45338;SDS011;31071;51.478;5.710;2023-06-26T06:35:22;21.45;;;5.13;;
45338;SDS011;31071;51.478;5.710;2023-06-26T06:37:49;13.40;;;5.55;;
45338;SDS011;31071;51.478;5.710;2023-06-26T06:40:15;14.90;;;4.82;;
45338;SDS011;31071;51.478;5.710;2023-06-26T06:42:41;18.55;;;5.30;;
45338;SDS011;31071;51.478;5.710;2023-06-26T06:45:07;15.43;;;5.25;;
45338;SDS011;31071;51.478;5.710;2023-06-26T06:50:44;21.60;;;5.30;;
45338;SDS011;31071;51.478;5.710;2023-06-26T06:54:11;12.68;;;4.95;;
45338;SDS011;31071;51.478;5.710;2023-06-26T06:56:17;15.57;;;4.78;;
45338;SDS011;31071;51.478;5.710;2023-06-26T06:58:45;19.92;;;4.53;;
45338;SDS011;31071;51.478;5.710;2023-06-26T07:01:21;10.43;;;4.43;;
45338;SDS011;31071;51.478;5.710;2023-06-26T07:03:46;16.60;;;5.03;;
45338;SDS011;31071;51.478;5.710;2023-06-26T07:06:12;17.15;;;5.20;;
45338;SDS011;31071;51.478;5.710;2023-06-26T07:08:37;13.07;;;4.85;;
45338;SDS011;31071;51.478;5.710;2023-06-26T07:11:03;18.23;;;4.53;;
45338;SDS011;31071;51.478;5.710;2023-06-26T07:13:29;13.65;;;4.55;;
45338;SDS011;31071;51.478;5.710;2023-06-26T07:15:55;12.98;;;4.75;;
45338;SDS011;31071;51.478;5.710;2023-06-26T07:18:20;13.55;;;4.00;;
45338;SDS011;31071;51.478;5.710;2023-06-26T07:20:49;11.90;;;3.90;;
45338;SDS011;31071;51.478;5.710;2023-06-26T07:23:15;13.77;;;4.20;;
45338;SDS011;31071;51.478;5.710;2023-06-26T07:25:46;12.82;;;3.85;;
45338;SDS011;31071;51.478;5.710;2023-06-26T07:31:06;11.85;;;4.18;;
45338;SDS011;31071;51.478;5.710;2023-06-26T07:39:42;11.88;;;3.50;;
45338;SDS011;31071;51.478;5.710;2023-06-26T07:57:40;9.20;;;4.43;;
45338;SDS011;31071;51.478;5.710;2023-06-26T08:00:17;9.77;;;4.10;;
45338;SDS011;31071;51.478;5.710;2023-06-26T08:02:42;12.07;;;4.65;;
45338;SDS011;31071;51.478;5.710;2023-06-26T08:05:08;8.20;;;3.78;;
45338;SDS011;31071;51.478;5.710;2023-06-26T08:07:33;9.13;;;4.35;;
45338;SDS011;31071;51.478;5.710;2023-06-26T08:09:59;8.05;;;3.67;;
45338;SDS011;31071;51.478;5.710;2023-06-26T08:12:25;8.45;;;3.78;;
45338;SDS011;31071;51.478;5.710;2023-06-26T08:14:50;7.75;;;3.90;;
45338;SDS011;31071;51.478;5.710;2023-06-26T08:17:16;11.07;;;3.95;;
45338;SDS011;31071;51.478;5.710;2023-06-26T08:19:41;8.65;;;4.05;;
45338;SDS011;31071;51.478;5.710;2023-06-26T08:22:07;11.57;;;3.63;;
45338;SDS011;31071;51.478;5.710;2023-06-26T08:24:32;7.40;;;4.60;;
45338;SDS011;31071;51.478;5.710;2023-06-26T08:26:58;9.70;;;5.00;;
45338;SDS011;31071;51.478;5.710;2023-06-26T08:29:23;7.60;;;4.60;;
45338;SDS011;31071;51.478;5.710;2023-06-26T08:31:49;9.20;;;4.40;;
45338;SDS011;31071;51.478;5.710;2023-06-26T08:34:15;8.43;;;4.43;;
45338;SDS011;31071;51.478;5.710;2023-06-26T08:36:40;7.65;;;4.30;;
45338;SDS011;31071;51.478;5.710;2023-06-26T08:39:06;8.93;;;4.07;;
45338;SDS011;31071;51.478;5.710;2023-06-26T08:41:33;7.88;;;3.58;;
45338;SDS011;31071;51.478;5.710;2023-06-26T08:43:59;12.07;;;3.35;;
45338;SDS011;31071;51.478;5.710;2023-06-26T08:46:24;7.00;;;2.90;;
45338;SDS011;31071;51.478;5.710;2023-06-26T08:49:01;5.97;;;2.78;;
45338;SDS011;31071;51.478;5.710;2023-06-26T08:51:33;4.38;;;2.47;;
45338;SDS011;31071;51.478;5.710;2023-06-26T08:54:05;4.82;;;2.25;;
45338;SDS011;31071;51.478;5.710;2023-06-26T08:59:04;5.35;;;2.40;;
45338;SDS011;31071;51.478;5.710;2023-06-26T09:01:31;7.68;;;1.70;;
45338;SDS011;31071;51.478;5.710;2023-06-26T09:03:57;5.15;;;2.15;;
45338;SDS011;31071;51.478;5.710;2023-06-26T09:06:23;6.13;;;1.90;;
45338;SDS011;31071;51.478;5.710;2023-06-26T09:08:48;5.22;;;1.90;;
45338;SDS011;31071;51.478;5.710;2023-06-26T09:11:14;5.55;;;1.92;;
45338;SDS011;31071;51.478;5.710;2023-06-26T09:13:39;2.67;;;1.63;;
45338;SDS011;31071;51.478;5.710;2023-06-26T09:16:06;5.97;;;1.70;;
45338;SDS011;31071;51.478;5.710;2023-06-26T09:18:33;3.88;;;1.65;;
45338;SDS011;31071;51.478;5.710;2023-06-26T09:20:59;4.70;;;1.85;;
45338;SDS011;31071;51.478;5.710;2023-06-26T09:23:26;6.05;;;1.55;;
45338;SDS011;31071;51.478;5.710;2023-06-26T09:25:51;4.45;;;1.60;;
45338;SDS011;31071;51.478;5.710;2023-06-26T09:28:17;5.60;;;1.95;;
45338;SDS011;31071;51.478;5.710;2023-06-26T09:30:44;6.20;;;1.80;;
45338;SDS011;31071;51.478;5.710;2023-06-26T09:33:17;5.13;;;2.13;;
45338;SDS011;31071;51.478;5.710;2023-06-26T09:35:44;5.70;;;1.80;;
45338;SDS011;31071;51.478;5.710;2023-06-26T09:38:11;5.60;;;1.35;;
45338;SDS011;31071;51.478;5.710;2023-06-26T09:40:38;4.80;;;1.83;;
45338;SDS011;31071;51.478;5.710;2023-06-26T09:43:24;3.22;;;1.55;;
45338;SDS011;31071;51.478;5.710;2023-06-26T09:45:50;5.30;;;1.60;;
45338;SDS011;31071;51.478;5.710;2023-06-26T09:48:16;5.88;;;1.60;;
45338;SDS011;31071;51.478;5.710;2023-06-26T09:50:43;4.70;;;1.40;;
45338;SDS011;31071;51.478;5.710;2023-06-26T09:53:12;5.10;;;1.35;;
45338;SDS011;31071;51.478;5.710;2023-06-26T09:55:39;4.50;;;1.50;;
45338;SDS011;31071;51.478;5.710;2023-06-26T09:58:10;5.78;;;1.58;;
45338;SDS011;31071;51.478;5.710;2023-06-26T10:00:39;3.30;;;1.20;;
45338;SDS011;31071;51.478;5.710;2023-06-26T10:03:05;6.28;;;1.75;;
45338;SDS011;31071;51.478;5.710;2023-06-26T10:05:31;3.03;;;1.15;;
45338;SDS011;31071;51.478;5.710;2023-06-26T10:07:57;5.13;;;1.10;;
45338;SDS011;31071;51.478;5.710;2023-06-26T10:10:23;7.35;;;1.40;;
45338;SDS011;31071;51.478;5.710;2023-06-26T10:12:51;4.78;;;1.08;;
45338;SDS011;31071;51.478;5.710;2023-06-26T10:15:23;3.60;;;1.13;;
45338;SDS011;31071;51.478;5.710;2023-06-26T10:17:50;2.20;;;1.10;;
45338;SDS011;31071;51.478;5.710;2023-06-26T10:20:18;2.42;;;1.42;;
45338;SDS011;31071;51.478;5.710;2023-06-26T10:22:45;3.38;;;1.35;;
45338;SDS011;31071;51.478;5.710;2023-06-26T10:25:12;4.30;;;1.48;;
45338;SDS011;31071;51.478;5.710;2023-06-26T10:27:44;3.10;;;1.42;;
45338;SDS011;31071;51.478;5.710;2023-06-26T10:30:15;2.58;;;1.00;;
45338;SDS011;31071;51.478;5.710;2023-06-26T10:32:43;2.90;;;1.20;;
45338;SDS011;31071;51.478;5.710;2023-06-26T10:35:10;4.85;;;1.17;;
45338;SDS011;31071;51.478;5.710;2023-06-26T10:37:43;2.25;;;1.10;;
45338;SDS011;31071;51.478;5.710;2023-06-26T10:40:13;3.47;;;1.13;;
45338;SDS011;31071;51.478;5.710;2023-06-26T10:42:39;2.95;;;1.05;;
45338;SDS011;31071;51.478;5.710;2023-06-26T10:45:09;6.68;;;1.02;;
45338;SDS011;31071;51.478;5.710;2023-06-26T10:47:39;3.22;;;1.20;;
45338;SDS011;31071;51.478;5.710;2023-06-26T10:55:56;5.60;;;1.20;;
45338;SDS011;31071;51.478;5.710;2023-06-26T10:58:33;3.83;;;1.00;;
45338;SDS011;31071;51.478;5.710;2023-06-26T11:03:48;2.50;;;0.90;;
45338;SDS011;31071;51.478;5.710;2023-06-26T11:06:23;3.38;;;1.13;;
45338;SDS011;31071;51.478;5.710;2023-06-26T11:14:23;2.35;;;1.25;;
45338;SDS011;31071;51.478;5.710;2023-06-26T11:16:51;2.35;;;1.08;;
45338;SDS011;31071;51.478;5.710;2023-06-26T11:19:20;4.80;;;1.10;;
45338;SDS011;31071;51.478;5.710;2023-06-26T11:21:46;3.05;;;1.20;;
45338;SDS011;31071;51.478;5.710;2023-06-26T11:24:12;1.75;;;1.25;;
45338;SDS011;31071;51.478;5.710;2023-06-26T11:26:38;1.08;;;0.98;;
45338;SDS011;31071;51.478;5.710;2023-06-26T11:29:04;3.28;;;1.10;;
45338;SDS011;31071;51.478;5.710;2023-06-26T11:31:31;2.17;;;1.00;;
45338;SDS011;31071;51.478;5.710;2023-06-26T11:33:59;2.13;;;1.30;;
45338;SDS011;31071;51.478;5.710;2023-06-26T11:36:26;2.20;;;1.17;;
45338;SDS011;31071;51.478;5.710;2023-06-26T11:38:53;4.05;;;1.23;;
45338;SDS011;31071;51.478;5.710;2023-06-26T11:41:31;1.58;;;1.02;;
45338;SDS011;31071;51.478;5.710;2023-06-26T11:44:05;4.03;;;1.60;;
45338;SDS011;31071;51.478;5.710;2023-06-26T11:46:31;3.08;;;1.30;;
45338;SDS011;31071;51.478;5.710;2023-06-26T11:48:58;4.50;;;1.40;;
45338;SDS011;31071;51.478;5.710;2023-06-26T11:51:26;3.40;;;1.30;;
45338;SDS011;31071;51.478;5.710;2023-06-26T11:53:53;3.88;;;1.33;;
45338;SDS011;31071;51.478;5.710;2023-06-26T11:56:18;3.92;;;1.50;;
45338;SDS011;31071;51.478;5.710;2023-06-26T11:58:57;2.38;;;0.98;;
45338;SDS011;31071;51.478;5.710;2023-06-26T12:01:35;2.63;;;1.30;;
45338;SDS011;31071;51.478;5.710;2023-06-26T12:04:03;2.58;;;1.13;;
45338;SDS011;31071;51.478;5.710;2023-06-26T12:06:33;2.90;;;1.20;;
45338;SDS011;31071;51.478;5.710;2023-06-26T12:09:02;2.40;;;1.10;;
45338;SDS011;31071;51.478;5.710;2023-06-26T12:11:33;3.25;;;1.10;;
45338;SDS011;31071;51.478;5.710;2023-06-26T12:13:59;4.38;;;0.98;;
45338;SDS011;31071;51.478;5.710;2023-06-26T12:16:29;4.85;;;1.50;;
45338;SDS011;31071;51.478;5.710;2023-06-26T12:24:03;2.38;;;1.30;;
45338;SDS011;31071;51.478;5.710;2023-06-26T12:26:30;2.50;;;0.93;;
45338;SDS011;31071;51.478;5.710;2023-06-26T12:29:02;2.83;;;1.33;;
45338;SDS011;31071;51.478;5.710;2023-06-26T12:31:32;6.28;;;1.20;;
45338;SDS011;31071;51.478;5.710;2023-06-26T12:33:58;3.47;;;1.50;;
45338;SDS011;31071;51.478;5.710;2023-06-26T12:36:39;1.95;;;1.00;;
45338;SDS011;31071;51.478;5.710;2023-06-26T12:39:08;2.53;;;1.10;;
45338;SDS011;31071;51.478;5.710;2023-06-26T12:41:35;3.08;;;1.23;;
45338;SDS011;31071;51.478;5.710;2023-06-26T12:44:15;2.60;;;1.38;;
45338;SDS011;31071;51.478;5.710;2023-06-26T12:46:49;1.42;;;1.13;;
45338;SDS011;31071;51.478;5.710;2023-06-26T12:49:15;2.03;;;1.00;;
45338;SDS011;31071;51.478;5.710;2023-06-26T12:51:42;6.38;;;1.40;;
45338;SDS011;31071;51.478;5.710;2023-06-26T12:54:08;6.03;;;1.50;;
45338;SDS011;31071;51.478;5.710;2023-06-26T12:56:34;4.25;;;1.48;;
45338;SDS011;31071;51.478;5.710;2023-06-26T12:59:00;3.97;;;1.42;;
45338;SDS011;31071;51.478;5.710;2023-06-26T13:01:26;2.53;;;1.17;;
45338;SDS011;31071;51.478;5.710;2023-06-26T13:03:53;4.00;;;1.40;;
45338;SDS011;31071;51.478;5.710;2023-06-26T13:06:18;3.85;;;1.50;;
45338;SDS011;31071;51.478;5.710;2023-06-26T13:08:44;2.13;;;1.10;;
45338;SDS011;31071;51.478;5.710;2023-06-26T13:11:10;2.55;;;1.40;;
45338;SDS011;31071;51.478;5.710;2023-06-26T13:13:35;5.32;;;1.40;;
45338;SDS011;31071;51.478;5.710;2023-06-26T13:16:01;3.60;;;1.52;;
45338;SDS011;31071;51.478;5.710;2023-06-26T13:18:27;1.52;;;1.40;;
45338;SDS011;31071;51.478;5.710;2023-06-26T13:20:53;3.42;;;1.33;;
45338;SDS011;31071;51.478;5.710;2023-06-26T13:23:18;6.75;;;1.92;;
45338;SDS011;31071;51.478;5.710;2023-06-26T13:25:44;3.30;;;1.27;;
45338;SDS011;31071;51.478;5.710;2023-06-26T13:28:10;6.03;;;1.52;;
45338;SDS011;31071;51.478;5.710;2023-06-26T13:30:36;1.75;;;1.27;;
45338;SDS011;31071;51.478;5.710;2023-06-26T13:33:05;3.08;;;1.23;;
45338;SDS011;31071;51.478;5.710;2023-06-26T13:35:31;2.67;;;1.10;;
45338;SDS011;31071;51.478;5.710;2023-06-26T13:37:57;2.78;;;1.20;;
45338;SDS011;31071;51.478;5.710;2023-06-26T13:40:22;3.80;;;1.20;;
45338;SDS011;31071;51.478;5.710;2023-06-26T13:42:48;4.97;;;1.30;;
45338;SDS011;31071;51.478;5.710;2023-06-26T13:45:14;3.10;;;1.30;;
45338;SDS011;31071;51.478;5.710;2023-06-26T13:47:39;3.05;;;1.10;;
45338;SDS011;31071;51.478;5.710;2023-06-26T13:50:07;3.83;;;1.33;;
45338;SDS011;31071;51.478;5.710;2023-06-26T13:52:34;3.70;;;1.35;;
45338;SDS011;31071;51.478;5.710;2023-06-26T13:55:00;4.97;;;1.10;;
45338;SDS011;31071;51.478;5.710;2023-06-26T13:57:25;4.15;;;1.23;;
45338;SDS011;31071;51.478;5.710;2023-06-26T13:59:53;1.25;;;1.10;;
45338;SDS011;31071;51.478;5.710;2023-06-26T14:02:19;3.17;;;1.20;;
45338;SDS011;31071;51.478;5.710;2023-06-26T14:04:44;3.60;;;1.20;;
45338;SDS011;31071;51.478;5.710;2023-06-26T14:07:10;2.88;;;1.35;;
45338;SDS011;31071;51.478;5.710;2023-06-26T14:09:35;1.88;;;1.10;;
45338;SDS011;31071;51.478;5.710;2023-06-26T14:12:01;3.42;;;1.27;;
45338;SDS011;31071;51.478;5.710;2023-06-26T14:14:27;2.38;;;1.20;;
45338;SDS011;31071;51.478;5.710;2023-06-26T14:16:53;3.17;;;1.20;;
45338;SDS011;31071;51.478;5.710;2023-06-26T14:19:18;1.85;;;1.35;;
45338;SDS011;31071;51.478;5.710;2023-06-26T14:21:44;2.28;;;1.42;;
45338;SDS011;31071;51.478;5.710;2023-06-26T14:24:09;2.83;;;1.20;;
45338;SDS011;31071;51.478;5.710;2023-06-26T14:26:36;5.32;;;1.30;;
45338;SDS011;31071;51.478;5.710;2023-06-26T14:29:03;1.65;;;1.20;;
45338;SDS011;31071;51.478;5.710;2023-06-26T14:31:29;4.00;;;1.27;;
45338;SDS011;31071;51.478;5.710;2023-06-26T14:33:55;2.05;;;1.17;;
45338;SDS011;31071;51.478;5.710;2023-06-26T14:36:22;3.70;;;1.00;;
45338;SDS011;31071;51.478;5.710;2023-06-26T14:38:48;2.97;;;2.00;;
45338;SDS011;31071;51.478;5.710;2023-06-26T14:41:14;1.20;;;1.10;;
45338;SDS011;31071;51.478;5.710;2023-06-26T14:47:08;6.10;;;1.10;;
45338;SDS011;31071;51.478;5.710;2023-06-26T14:49:33;2.95;;;1.48;;
45338;SDS011;31071;51.478;5.710;2023-06-26T14:51:59;2.28;;;1.30;;
45338;SDS011;31071;51.478;5.710;2023-06-26T14:54:25;4.72;;;1.20;;
45338;SDS011;31071;51.478;5.710;2023-06-26T14:56:51;2.85;;;1.00;;
45338;SDS011;31071;51.478;5.710;2023-06-26T14:59:16;2.13;;;1.17;;
45338;SDS011;31071;51.478;5.710;2023-06-26T15:01:42;2.67;;;1.45;;
45338;SDS011;31071;51.478;5.710;2023-06-26T15:04:07;4.05;;;1.30;;
45338;SDS011;31071;51.478;5.710;2023-06-26T15:06:33;2.65;;;1.45;;
45338;SDS011;31071;51.478;5.710;2023-06-26T15:08:59;2.15;;;1.33;;
45338;SDS011;31071;51.478;5.710;2023-06-26T15:11:25;5.60;;;2.22;;
45338;SDS011;31071;51.478;5.710;2023-06-26T15:13:50;2.60;;;1.20;;
45338;SDS011;31071;51.478;5.710;2023-06-26T15:16:16;2.80;;;1.50;;
45338;SDS011;31071;51.478;5.710;2023-06-26T15:18:42;5.13;;;1.90;;
45338;SDS011;31071;51.478;5.710;2023-06-26T15:21:07;3.15;;;1.20;;
45338;SDS011;31071;51.478;5.710;2023-06-26T15:23:33;3.35;;;1.20;;
45338;SDS011;31071;51.478;5.710;2023-06-26T15:25:59;5.00;;;1.40;;
45338;SDS011;31071;51.478;5.710;2023-06-26T15:28:31;8.40;;;1.45;;
45338;SDS011;31071;51.478;5.710;2023-06-26T15:30:57;1.85;;;1.42;;
45338;SDS011;31071;51.478;5.710;2023-06-26T15:33:24;3.78;;;1.33;;
45338;SDS011;31071;51.478;5.710;2023-06-26T15:35:52;2.35;;;1.40;;
45338;SDS011;31071;51.478;5.710;2023-06-26T15:38:21;5.07;;;1.33;;
45338;SDS011;31071;51.478;5.710;2023-06-26T15:40:47;2.50;;;1.65;;